createdAt,value
2019-06-25T09:29:06.439Z,62.30
2019-06-25T09:31:35.686Z,61.90
2019-06-25T09:34:04.909Z,61.90
2019-06-25T09:36:34.127Z,62.20
2019-06-25T09:39:04.294Z,61.50
2019-06-25T09:41:32.686Z,61.70
2019-06-25T09:44:01.085Z,61.70
2019-06-25T09:46:30.787Z,61.50
2019-06-25T09:49:00.455Z,61.80
2019-06-25T09:51:30.148Z,61.80
2019-06-25T09:53:59.654Z,61.30
2019-06-25T09:56:30.481Z,60.70
2019-06-25T09:58:59.932Z,60.70
2019-06-25T10:01:44.266Z,61.00
2019-06-25T10:04:00.460Z,61.40
2019-06-25T10:06:29.679Z,61.70
2019-06-25T10:08:59.255Z,61.00
2019-06-25T10:11:28.463Z,60.30
2019-06-25T10:13:57.700Z,59.80
2019-06-25T10:16:29.415Z,61.10
2019-06-25T10:19:04.756Z,60.50
2019-06-25T10:21:34.214Z,59.70
2019-06-25T10:24:06.159Z,59.70
2019-06-25T10:26:38.970Z,60.70
2019-06-25T10:29:11.063Z,60.90
2019-06-25T10:31:43.713Z,59.70
2019-06-25T10:34:14.483Z,60.30
2019-06-25T10:36:43.866Z,59.80
2019-06-25T10:39:13.090Z,60.30
2019-06-25T10:41:42.311Z,60.20
2019-06-25T10:44:14.368Z,59.90
2019-06-25T10:46:42.449Z,59.50
2019-06-25T10:49:11.735Z,59.70
2019-06-25T10:51:40.948Z,59.80
2019-06-25T10:54:10.175Z,59.60
2019-06-25T10:56:39.374Z,59.80
2019-06-25T10:59:08.612Z,59.90
2019-06-25T11:01:37.825Z,59.80
2019-06-25T11:04:07.322Z,58.50
2019-06-25T11:06:36.563Z,60.00
2019-06-25T11:09:10.563Z,59.50
2019-06-25T11:11:39.757Z,59.40
2019-06-25T11:14:09.239Z,59.70
2019-06-25T11:16:38.842Z,59.10
2019-06-25T11:19:08.166Z,59.50
2019-06-25T11:21:37.399Z,59.00
2019-06-25T11:24:06.606Z,59.00
2019-06-25T11:26:35.834Z,58.10
2019-06-25T11:29:05.084Z,58.90
2019-06-25T11:31:34.299Z,59.30
2019-06-25T11:34:03.523Z,58.00
2019-06-25T11:36:32.726Z,58.50
2019-06-25T11:39:02.582Z,58.50
2019-06-25T11:41:33.482Z,58.70
2019-06-25T11:44:02.703Z,59.70
2019-06-25T11:46:31.907Z,59.20
2019-06-25T11:49:01.298Z,58.50
2019-06-25T11:51:30.503Z,58.90
2019-06-25T11:53:59.723Z,59.00
2019-06-25T11:56:28.947Z,57.30
2019-06-25T11:58:58.174Z,58.40
2019-06-25T12:01:28.471Z,58.60
2019-06-25T12:03:57.956Z,58.20
2019-06-25T12:06:35.166Z,57.10
2019-06-25T12:08:59.699Z,57.90
2019-06-25T12:11:29.077Z,58.10
2019-06-25T12:13:58.299Z,58.20
2019-06-25T12:16:27.588Z,58.30
2019-06-25T12:18:56.784Z,57.80
2019-06-25T12:21:26.243Z,57.80
2019-06-25T12:23:55.450Z,56.70
2019-06-25T12:26:24.683Z,57.00
2019-06-25T12:28:53.909Z,56.80
2019-06-25T12:31:23.123Z,57.00
2019-06-25T12:33:52.313Z,55.80
2019-06-25T12:36:21.550Z,56.80
2019-06-25T12:38:50.754Z,56.80
2019-06-25T12:41:19.983Z,57.20
2019-06-25T12:43:49.187Z,57.20
2019-06-25T12:46:18.420Z,57.20
2019-06-25T12:48:47.615Z,55.70
2019-06-25T12:51:16.846Z,56.70
2019-06-25T12:53:46.042Z,56.60
2019-06-25T12:56:15.291Z,56.30
2019-06-25T12:58:44.492Z,56.10
2019-06-25T13:01:13.806Z,55.70
2019-06-25T13:03:43.082Z,56.50
2019-06-25T13:06:12.766Z,56.60
2019-06-25T13:08:42.057Z,56.90
2019-06-25T13:11:11.254Z,56.00
2019-06-25T13:13:40.483Z,56.10
2019-06-25T13:16:09.766Z,55.40
2019-06-25T13:18:39.309Z,55.30
2019-06-25T13:21:08.618Z,55.50
2019-06-25T13:26:06.738Z,55.70
2019-06-25T13:28:35.955Z,55.60
2019-06-25T13:31:05.155Z,54.80
2019-06-25T13:33:34.379Z,55.10
2019-06-25T13:36:03.855Z,55.50
2019-06-25T13:38:33.293Z,55.30
2019-06-25T13:41:02.665Z,55.60
2019-06-25T13:43:31.880Z,55.40
2019-06-25T13:46:01.090Z,55.10
2019-06-25T13:48:30.317Z,55.30
2019-06-25T13:50:59.545Z,55.60
2019-06-25T13:53:29.850Z,54.40
2019-06-25T13:56:00.145Z,55.50
2019-06-25T13:58:29.339Z,54.90
2019-06-25T14:00:58.651Z,54.80
2019-06-25T14:03:28.230Z,54.50
2019-06-25T14:05:57.456Z,54.10
2019-06-25T14:08:26.669Z,54.20
2019-06-25T14:10:55.888Z,54.40
2019-06-25T14:13:25.091Z,53.90
2019-06-25T14:15:54.310Z,54.80
2019-06-25T14:18:23.510Z,54.50
2019-06-25T14:20:52.733Z,54.40
2019-06-25T14:23:21.951Z,54.40
2019-06-25T14:25:51.190Z,53.70
2019-06-25T14:28:20.437Z,53.50
2019-06-25T14:30:50.833Z,54.10
2019-06-25T14:33:20.039Z,53.70
2019-06-25T14:35:49.288Z,53.30
2019-06-25T14:38:18.542Z,54.00
2019-06-25T14:40:47.770Z,53.80
2019-06-25T14:43:16.976Z,54.10
2019-06-25T14:45:46.198Z,53.80
2019-06-25T14:48:15.414Z,53.70
2019-06-25T14:50:44.613Z,53.10
2019-06-25T14:53:15.465Z,53.80
2019-06-25T14:55:45.162Z,53.50
2019-06-25T14:58:14.363Z,53.90
2019-06-25T15:00:43.592Z,53.50
2019-06-25T15:03:12.785Z,53.60
2019-06-25T15:05:42.010Z,52.90
2019-06-25T15:08:11.205Z,53.20
2019-06-25T15:10:40.428Z,52.70
2019-06-25T15:13:09.650Z,53.10
2019-06-25T15:15:39.222Z,53.00
2019-06-25T15:18:08.442Z,53.10
2019-06-25T15:20:37.642Z,52.70
2019-06-25T15:23:06.934Z,53.10
2019-06-25T15:25:36.141Z,53.00
2019-06-25T15:30:37.191Z,52.90
2019-06-25T15:33:06.676Z,53.00
2019-06-25T15:35:35.870Z,52.50
2019-06-25T15:38:05.370Z,52.10
2019-06-25T15:40:34.575Z,52.80
2019-06-25T15:43:03.789Z,52.40
2019-06-25T15:45:36.304Z,52.90
2019-06-25T15:48:05.585Z,52.80
2019-06-25T15:50:34.788Z,53.50
2019-06-25T15:53:04.050Z,53.00
2019-06-25T15:55:33.350Z,53.20
2019-06-25T15:58:03.374Z,52.90
2019-06-25T16:00:32.574Z,53.00
2019-06-25T16:03:01.808Z,52.60
2019-06-25T16:05:31.015Z,53.30
2019-06-25T16:08:00.239Z,52.90
2019-06-25T16:10:29.465Z,53.50
2019-06-25T16:12:58.667Z,54.90
2019-06-25T16:15:40.626Z,53.00
2019-06-25T16:17:59.237Z,52.40
2019-06-25T16:20:28.435Z,53.20
2019-06-25T16:22:57.668Z,53.50
2019-06-25T16:25:26.895Z,52.30
2019-06-25T16:27:56.097Z,52.60
2019-06-25T16:30:27.487Z,51.80
2019-06-25T16:32:56.759Z,51.30
2019-06-25T16:35:26.096Z,51.00
2019-06-25T16:37:55.332Z,51.20
2019-06-25T16:40:24.541Z,50.20
2019-06-25T16:42:53.822Z,50.80
2019-06-25T16:47:51.844Z,49.10
